Air Resources Laboratory banner image
Air Resources Laboratory web site National Oceanic and Atmospheric Administration (NOAA)

ia metar


KADU 131255Z AUTO 28006G15KT 10SM SCT100 07/M03 A2956 RMK AO2=
KAIO 131255Z AUTO 27012KT 10SM OVC100 06/M04 A2958 RMK AO2=
KALO 131254Z 23008KT 10SM CLR 01/M04 A2936 RMK AO2 SLP952 T00061044=
KAMW 131253Z AUTO 27013KT 10SM CLR 04/M04 A2946 RMK AO2 SLP982 T00441039=
KAWG 131255Z AUTO 23014G21KT 10SM CLR 00/M04 A2950 RMK AO2=
KAXA 131255Z AUTO 31022G30KT 10SM SCT080 SCT110 06/M01 A2943 RMK AO2 PWINO=
KBNW 131255Z AUTO 27015KT 10SM SCT080 BKN100 BKN120 05/M04 A2945 RMK AO2=
KBRL 131253Z AUTO 21015KT 10SM CLR M01/M05 A2953 RMK AO2 SLP008 T10061050=
KCAV 131255Z AUTO 29021KT 10SM FEW075 BKN100 BKN120 05/M03 A2942 RMK AO2 PWINO=
KCBF 131255Z AUTO 30014G21KT 10SM CLR 09/M04 A2963 RMK AO2=
KCCY 131255Z AUTO 23007KT 10SM SCT120 BKN140 BKN190 M01/M03 A2935 RMK AO2=
KCID 131252Z 22010KT 10SM CLR 00/M04 A2943 RMK AO2 SLP974 T00001044=
KCIN 131255Z AUTO 30027G37KT 10SM BKN095 OVC120 09/M01 A2952 RMK AO2=
KCNC 131255Z AUTO 24010KT 10SM FEW120 02/M04 A2952 RMK AO2=
KCSQ 131255Z AUTO 27013KT 10SM CLR 03/M04 A2956 RMK AO2=
KCWI 131256Z AUTO 20014KT 10SM BKN075 M01/M06 A2946 RMK AO2 SLP005 T10111056
 FZRANO=
KDBQ 131253Z 19015KT 10SM CLR M03/M06 A2940 RMK AO2 SLP969 T10281061=
KDEH 131255Z AUTO 19008KT 160V220 10SM FEW110 M01/M04 A2934 RMK AO2=
KDNS 131255Z AUTO 31024G30KT 10SM BKN075 OVC095 09/M02 A2958 RMK AO2=
KDSM 131254Z 26007KT 10SM SCT095 BKN180 OVC230 04/M05 A2950 RMK AO2 SLP997
 T00391050=
KDVN 131252Z AUTO 20020G27KT 10SM CLR M01/M07 A2948 RMK AO2 PK WND 19027/1251
 SLP989 T10061067=
KEBS 131255Z AUTO 29024G30KT 10SM FEW070 BKN100 BKN120 06/M03 A2942 RMK AO2=
KEOK 131255Z AUTO 14.00000014G19KT 10SM CLR 00/M05 A2955 RMK AO2=
KEST 131252Z AUTO 32030G40KT 10SM BKN033 BKN085 04/M01 A2944 RMK AO2 PK WND
 32040/1248 SLP980 T00391006=
KFFL 131255Z AUTO 23014G20KT 10SM SCT220 01/M05 A2950 RMK AO2 PWINO=
KFOD 131256Z AUTO 30020G31KT 10SM OVC110 07/M01 A2945 RMK AO2 PK WND 30031/1252
 SLP008 T00721006=
KFSW 131255Z AUTO 21014G19KT 10SM CLR 01/M05 A2954 RMK AO2=
KHNR 131255Z AUTO 28014KT 10SM SCT110 05/M04 A2963 RMK AO2=
KICL 131255Z AUTO 27010KT 10SM BKN120 04/M04 RMK AO2=
KIKV 131255Z AUTO 27014G19KT 10SM CLR 05/M05 A2950 RMK AO2=
KIOW 131252Z AUTO 21009KT 10SM CLR 01/M04 A2948 RMK AO2 SLP989 T00111044=
KLRJ 131255Z AUTO 31024G43KT 10SM FEW027 SCT038 BKN050 07/01 A2960 RMK AO2=
KLWD 131253Z AUTO 26013KT 10SM CLR 03/M05 A2957 RMK AO2 SLP023 T00281050=
KMCW 131253Z AUTO 28018G26KT 10SM CLR 04/M04 A2936 RMK AO2 PK WND 29026/1248
 SLP950 T00391044=
KMIW 131253Z AUTO 26014KT 10SM CLR 03/M04 A2941 RMK AO2 SLP967 T00281039=
KMUT 131255Z AUTO 20011KT 10SM CLR 00/M06 A2950 RMK AO2=
KMXO 131255Z AUTO 18007KT 10SM CLR M02/M06 A2943 RMK AO2=
KOLZ 131255Z AUTO 20010KT 10SM SCT160 BKN180 OVC200 M01/M03 A2937 RMK AO2=
KORC 131255Z AUTO 31026G38KT 10SM BKN034 BKN041 OVC047 07/02 A2957 RMK AO2=
KOTM 131253Z AUTO 24016G23KT 10SM CLR 02/M04 A2950 RMK AO2 SLP998 T00221044=
KOXV 131255Z AUTO 24015KT 10SM FEW200 BKN220 BKN250 03/M05 A2947 RMK AO2=
KRDK 131255Z AUTO 28011KT 10SM FEW002 BKN095 OVC180 05/M04 A2962 RMK AO2=
KSDA 131255Z AUTO 25009KT 10SM FEW120 03/M04 A2965 RMK AO2=
KSHL 131255Z AUTO 32031G38KT 9SM -UP OVC021 05/01 A2952 RMK AO2=
KSLB 131255Z AUTO 31030G39KT 10SM SCT032 BKN045 BKN120 07/M00 A2951 RMK AO2=
KSPW 131253Z AUTO 31029G39KT 10SM OVC020 06/01 A2949 RMK AO2 PK WND 30041/1159
 SLP998 T00560011=
KSUX 131252Z 32019G33KT 10SM FEW050 FEW070 09/M02 A2960 RMK AO2 PK WND
 32041/1154 RAE36 SLP031 P0000 T00891017=
KTNU 131255Z AUTO 23010KT 10SM CLR 01/M04 A2946 RMK AO2 PWINO=